Time;durP1;ratioP1;P1;durP2;ratioP2;P2;SDS_P1;SDS_P2;PMS_P1;PMS_P2;Temp;Humidity;BMP_temperature;BMP_pressure;BME280_temperature;BME280_humidity;BME280_pressure;Samples;Min_cycle;Max_cycle;Signal;HPM_P1;HPM_P2
2023/12/26 00:01:31;;;;;;;15.87;3.73;;;;;;;5.27;100.00;99586.41;4930301;57;1136846;-78
2023/12/26 00:06:38;;;;;;;22.73;5.63;;;;;;;5.26;100.00;99576.87;4929523;57;1141569;-78
2023/12/26 00:11:48;;;;;;;20.00;4.67;;;;;;;5.30;100.00;99561.30;5031615;57;1138747;-77
2023/12/26 00:16:53;;;;;;;12.87;4.00;;;;;;;5.36;100.00;99544.27;5020660;57;1138874;-78
2023/12/26 00:21:59;;;;;;;13.70;4.58;;;;;;;5.44;100.00;99550.29;5025123;56;1138634;-78
2023/12/26 00:27:04;;;;;;;8.73;3.77;;;;;;;5.48;100.00;99545.20;5003874;57;1138823;-78
2023/12/26 00:32:10;;;;;;;11.80;3.90;;;;;;;5.51;100.00;99547.09;4971885;57;1134761;-78
2023/12/26 00:37:15;;;;;;;12.60;3.50;;;;;;;5.50;100.00;99545.93;4859848;57;1136546;-77
2023/12/26 00:42:21;;;;;;;18.87;4.17;;;;;;;5.51;100.00;99537.08;4880191;57;1138827;-77
2023/12/26 00:47:27;;;;;;;9.70;3.47;;;;;;;5.51;100.00;99533.98;4861860;57;1138909;-77
2023/12/26 00:52:32;;;;;;;14.50;3.33;;;;;;;5.56;100.00;99523.17;4861902;57;1136799;-77
2023/12/26 00:57:38;;;;;;;16.12;3.98;;;;;;;5.59;100.00;99513.30;4862201;57;1136716;-78
2023/12/26 01:02:44;;;;;;;7.60;2.93;;;;;;;5.62;100.00;99518.33;4880980;57;1138633;-79
2023/12/26 01:07:50;;;;;;;11.35;2.70;;;;;;;5.68;100.00;99513.09;4831510;57;1136866;-78
2023/12/26 01:12:57;;;;;;;8.93;2.73;;;;;;;5.75;100.00;99499.89;4866038;57;1138768;-78
2023/12/26 01:18:02;;;;;;;6.63;3.10;;;;;;;5.83;100.00;99490.97;5027603;56;1136602;-78
2023/12/26 01:23:09;;;;;;;7.50;2.97;;;;;;;5.91;100.00;99488.66;4975405;57;1136772;-78
2023/12/26 01:28:15;;;;;;;11.00;2.73;;;;;;;5.97;100.00;99491.28;4894255;58;1136646;-78
2023/12/26 01:33:22;;;;;;;16.63;8.00;;;;;;;6.05;100.00;99471.87;4875284;59;1138420;-77
2023/12/26 01:38:27;;;;;;;7.87;3.53;;;;;;;6.15;100.00;99452.31;4861427;58;1138900;-78
2023/12/26 01:43:33;;;;;;;14.17;4.30;;;;;;;6.22;100.00;99445.66;4875026;58;1136999;-78
2023/12/26 01:48:38;;;;;;;9.65;3.58;;;;;;;6.27;100.00;99449.58;4875475;57;1138880;-78
2023/12/26 01:53:44;;;;;;;9.48;3.60;;;;;;;6.32;100.00;99434.79;4895047;58;1136700;-78
2023/12/26 01:58:51;;;;;;;8.87;3.57;;;;;;;6.33;100.00;99425.48;4951196;57;1146464;-78
2023/12/26 02:03:59;;;;;;;9.43;4.62;;;;;;;6.35;100.00;99423.58;4953638;57;1136609;-77
2023/12/26 02:09:05;;;;;;;5.87;4.10;;;;;;;6.41;100.00;99410.94;5026207;57;1136875;-78
2023/12/26 02:14:11;;;;;;;9.70;4.03;;;;;;;6.47;100.00;99399.93;5049431;56;1136711;-78
2023/12/26 02:19:17;;;;;;;6.73;3.53;;;;;;;6.51;100.00;99395.64;4995421;57;1136818;-77
2023/12/26 02:24:23;;;;;;;10.43;4.47;;;;;;;6.55;100.00;99386.57;4968627;57;1136782;-78
2023/12/26 02:29:30;;;;;;;5.33;3.07;;;;;;;6.60;100.00;99379.61;5099086;56;1138617;-79
2023/12/26 02:34:37;;;;;;;7.10;3.63;;;;;;;6.65;100.00;99373.05;5034421;57;1137005;-78
2023/12/26 02:39:44;;;;;;;7.27;3.40;;;;;;;6.69;100.00;99362.66;5096626;56;1136958;-78
2023/12/26 02:44:52;;;;;;;3.50;3.20;;;;;;;6.78;100.00;99351.05;5099018;55;1136690;-79
2023/12/26 02:49:57;;;;;;;5.17;3.27;;;;;;;6.85;100.00;99340.41;5023971;57;1137031;-78
2023/12/26 02:55:03;;;;;;;3.75;2.90;;;;;;;6.95;100.00;99338.21;5079797;56;1136730;-79
2023/12/26 03:00:10;;;;;;;2.60;2.40;;;;;;;7.05;100.00;99317.25;5022482;57;1136524;-78
2023/12/26 03:05:15;;;;;;;3.23;2.97;;;;;;;7.11;100.00;99313.30;4864139;57;1136726;-78
2023/12/26 03:10:21;;;;;;;8.23;3.60;;;;;;;7.18;100.00;99295.55;4855289;58;1136857;-78
2023/12/26 03:15:27;;;;;;;3.70;2.63;;;;;;;7.25;100.00;99288.84;4854709;57;1136726;-78
2023/12/26 03:20:32;;;;;;;6.23;2.63;;;;;;;7.30;100.00;99274.00;4907346;57;1136635;-78
2023/12/26 03:25:38;;;;;;;3.07;2.60;;;;;;;7.35;100.00;99266.53;4925377;56;1136840;-78
2023/12/26 03:30:43;;;;;;;2.63;2.30;;;;;;;7.41;100.00;99253.72;4926680;57;1136732;-78
2023/12/26 03:35:49;;;;;;;2.83;2.00;;;;;;;7.47;100.00;99256.32;4902831;57;1136975;-78
2023/12/26 03:40:55;;;;;;;2.60;2.40;;;;;;;7.50;100.00;99239.41;4874427;58;1136993;-78
2023/12/26 03:46:00;;;;;;;2.67;1.97;;;;;;;7.53;100.00;99236.53;5000063;57;1137047;-78
2023/12/26 03:51:06;;;;;;;3.07;2.23;;;;;;;7.57;100.00;99227.42;4948071;57;1136967;-78
2023/12/26 03:56:11;;;;;;;2.30;2.13;;;;;;;7.59;100.00;99217.59;4954252;57;1136563;-79
2023/12/26 04:01:17;;;;;;;2.03;1.93;;;;;;;7.61;100.00;99209.93;4967659;57;1136680;-78
2023/12/26 04:06:23;;;;;;;1.70;1.60;;;;;;;7.62;100.00;99201.55;4980797;57;1136569;-78
2023/12/26 04:11:30;;;;;;;2.67;1.80;;;;;;;7.66;100.00;99195.03;4948067;57;1136623;-77
2023/12/26 04:16:36;;;;;;;2.60;2.40;;;;;;;7.69;100.00;99188.20;5016637;57;1138679;-78
2023/12/26 04:21:41;;;;;;;25.27;12.80;;;;;;;7.74;100.00;99186.02;5037681;57;1136438;-78
2023/12/26 04:26:47;;;;;;;17.57;5.40;;;;;;;7.75;100.00;99176.67;4988169;57;1140633;-78
2023/12/26 04:31:53;;;;;;;3.87;2.37;;;;;;;7.79;100.00;99165.40;5002878;57;1138630;-77
2023/12/26 04:36:58;;;;;;;5.85;2.12;;;;;;;7.76;100.00;99141.49;5038533;57;1136739;-78
2023/12/26 04:42:04;;;;;;;3.15;1.32;;;;;;;7.82;100.00;99136.16;5018614;57;1136517;-79
2023/12/26 04:47:10;;;;;;;9.27;2.83;;;;;;;7.83;100.00;99129.92;5013362;57;1136766;-76
2023/12/26 04:52:18;;;;;;;1.53;1.27;;;;;;;7.85;100.00;99139.84;4971566;57;1136686;-76
2023/12/26 04:57:23;;;;;;;2.83;1.23;;;;;;;7.88;100.00;99126.41;4899391;57;1136855;-76
2023/12/26 05:02:28;;;;;;;57.73;21.43;;;;;;;7.88;100.00;99113.25;4859990;58;1136761;-76
2023/12/26 05:07:35;;;;;;;4.67;1.90;;;;;;;7.91;100.00;99109.52;4864613;57;1140634;-76
2023/12/26 05:12:40;;;;;;;1.13;0.57;;;;;;;7.92;100.00;99096.22;4959211;58;1136830;-76
2023/12/26 05:17:46;;;;;;;8.40;2.13;;;;;;;7.95;100.00;99084.08;4940022;57;1136473;-76
2023/12/26 05:22:52;;;;;;;21.27;4.43;;;;;;;7.95;100.00;99090.66;5000010;55;1136962;-75
2023/12/26 05:27:57;;;;;;;5.67;2.25;;;;;;;7.96;100.00;99085.74;4890682;57;1138943;-77
2023/12/26 05:33:03;;;;;;;10.48;3.02;;;;;;;7.95;100.00;99074.86;5025807;57;1136893;-77
2023/12/26 05:38:09;;;;;;;7.00;2.00;;;;;;;7.95;100.00;99071.39;5024911;57;1139164;-76
2023/12/26 05:43:15;;;;;;;4.40;1.40;;;;;;;7.94;100.00;99071.91;5045310;57;1136856;-76
2023/12/26 05:48:22;;;;;;;5.73;1.50;;;;;;;7.93;100.00;99065.47;5025808;57;1136942;-78
2023/12/26 05:53:30;;;;;;;1.33;0.90;;;;;;;7.93;100.00;99065.47;4982691;57;1136489;-76
2023/12/26 05:58:35;;;;;;;6.73;1.90;;;;;;;7.93;100.00;99047.87;4861733;59;1136800;-76
2023/12/26 06:03:41;;;;;;;34.30;12.40;;;;;;;7.95;100.00;99059.06;4878944;58;1136657;-77
2023/12/26 06:08:47;;;;;;;9.63;3.27;;;;;;;7.95;100.00;99059.55;4939880;58;1140796;-77
2023/12/26 06:13:52;;;;;;;1.43;1.20;;;;;;;7.96;100.00;99065.16;4946049;57;1136460;-76
2023/12/26 06:18:58;;;;;;;1.07;0.90;;;;;;;7.99;100.00;99061.78;4963930;58;1136853;-76
2023/12/26 06:24:05;;;;;;;0.60;0.60;;;;;;;8.03;100.00;99061.02;4987042;57;1136723;-76
2023/12/26 06:29:10;;;;;;;0.50;0.47;;;;;;;8.07;100.00;99061.94;5025260;57;1136617;-77
2023/12/26 06:34:16;;;;;;;0.50;0.50;;;;;;;8.12;100.00;99066.77;5043792;57;1136564;-77
2023/12/26 06:39:22;;;;;;;0.50;0.50;;;;;;;8.18;100.00;99075.92;5024673;57;1136559;-76
2023/12/26 06:44:27;;;;;;;0.40;0.40;;;;;;;8.23;100.00;99078.50;5024816;57;1136481;-77
2023/12/26 06:49:33;;;;;;;0.67;0.63;;;;;;;8.30;100.00;99085.34;5024163;57;1136911;-77
2023/12/26 06:54:39;;;;;;;0.40;0.40;;;;;;;8.36;100.00;99098.83;5139407;56;1136814;-76
2023/12/26 06:59:52;;;;;;;8.40;1.90;;;;;;;8.39;100.00;99097.72;5094886;56;1136617;-77
2023/12/26 07:04:56;;;;;;;0.20;0.20;;;;;;;8.42;100.00;99109.27;5027251;57;1136575;-77
2023/12/26 07:10:02;;;;;;;0.20;0.20;;;;;;;8.42;100.00;99125.08;5050422;57;1136694;-77
2023/12/26 07:15:09;;;;;;;0.42;0.42;;;;;;;8.42;100.00;99114.54;5031717;56;1136762;-76
2023/12/26 07:20:14;;;;;;;0.47;0.47;;;;;;;8.41;100.00;99129.52;4942027;57;1136728;-76
2023/12/26 07:25:20;;;;;;;1.82;1.72;;;;;;;8.42;100.00;99135.61;5025080;57;1136357;-76
2023/12/26 07:30:25;;;;;;;0.40;0.40;;;;;;;8.38;100.00;99145.63;5022662;57;1136699;-76
2023/12/26 07:35:31;;;;;;;0.73;0.73;;;;;;;8.37;100.00;99171.62;5022529;57;1136743;-76
2023/12/26 07:40:39;;;;;;;3.53;2.37;;;;;;;8.36;100.00;99147.56;5119086;56;1136572;-76
2023/12/26 07:45:44;;;;;;;12.00;5.10;;;;;;;8.37;100.00;99133.91;5134511;56;1136611;-76
2023/12/26 07:50:50;;;;;;;9.43;4.62;;;;;;;8.38;100.00;99143.47;5135367;56;1138686;-76
2023/12/26 07:55:56;;;;;;;16.90;6.07;;;;;;;8.37;100.00;99138.69;5101339;56;1136820;-76
2023/12/26 08:01:02;;;;;;;6.50;2.53;;;;;;;8.37;100.00;99161.08;5138688;56;1139017;-77
2023/12/26 08:06:08;;;;;;;15.32;5.80;;;;;;;8.37;100.00;99171.62;5107891;56;1136845;-76
2023/12/26 08:11:13;;;;;;;4.60;2.90;;;;;;;8.37;100.00;99176.05;5117889;56;1138464;-76
2023/12/26 08:16:19;;;;;;;1.90;1.70;;;;;;;8.39;100.00;99170.16;5094169;56;1136620;-77
2023/12/26 08:21:24;;;;;;;2.37;1.53;;;;;;;8.40;100.00;99184.48;5098667;56;1136904;-77
2023/12/26 08:26:33;;;;;;;1.30;0.70;;;;;;;8.43;100.00;99200.52;4978149;57;1136829;-78
2023/12/26 08:31:39;;;;;;;2.50;0.57;;;;;;;8.43;100.00;99205.30;4963971;57;1136694;-79
2023/12/26 08:36:44;;;;;;;1.00;0.40;;;;;;;8.47;100.00;99229.58;4982182;57;1136639;-75
2023/12/26 08:41:50;;;;;;;0.57;0.30;;;;;;;8.49;100.00;99222.86;4989713;57;1136775;-74
2023/12/26 08:46:55;;;;;;;0.77;0.50;;;;;;;8.54;100.00;99221.97;5022865;57;1136536;-73
2023/12/26 08:52:02;;;;;;;0.60;0.60;;;;;;;8.55;100.00;99245.55;5042830;57;1136920;-77
2023/12/26 08:57:07;;;;;;;1.10;0.47;;;;;;;8.54;100.00;99254.42;4939965;58;1136608;-74
2023/12/26 09:02:13;;;;;;;0.43;0.43;;;;;;;8.54;100.00;99261.50;4940047;58;1136713;-76
2023/12/26 09:07:18;;;;;;;0.97;0.80;;;;;;;8.53;100.00;99263.78;4959816;58;1136994;-74
2023/12/26 09:12:24;;;;;;;0.60;0.60;;;;;;;8.54;100.00;99240.41;4940584;58;1136715;-76
2023/12/26 09:17:29;;;;;;;0.37;0.37;;;;;;;8.53;100.00;99283.55;4916589;58;1136705;-80
2023/12/26 09:22:35;;;;;;;0.43;0.43;;;;;;;8.52;100.00;99285.34;5026400;56;1136879;-75
2023/12/26 09:27:46;;;;;;;1.00;1.00;;;;;;;8.49;100.00;99298.78;5044869;57;1136558;-78
2023/12/26 09:32:52;;;;;;;0.88;0.60;;;;;;;8.49;100.00;99304.54;5120818;56;1136731;-77
2023/12/26 09:37:58;;;;;;;0.93;0.88;;;;;;;8.49;100.00;99317.23;5083501;56;1136598;-77
2023/12/26 09:43:07;;;;;;;0.80;0.80;;;;;;;8.50;100.00;99318.06;5042846;57;1136713;-77
2023/12/26 09:48:13;;;;;;;2.03;1.00;;;;;;;8.54;100.00;99323.42;4976432;57;1136565;-76
2023/12/26 09:53:24;;;;;;;1.13;0.70;;;;;;;8.56;100.00;99322.30;5011375;57;1136426;-76
2023/12/26 09:58:30;;;;;;;2.53;2.33;;;;;;;8.58;100.00;99334.02;5032556;57;1137226;-77
2023/12/26 10:03:36;;;;;;;1.23;0.90;;;;;;;8.59;100.00;99350.19;5004495;57;1136762;-76
2023/12/26 10:08:42;;;;;;;1.03;1.03;;;;;;;8.59;100.00;99348.87;4992012;57;1136834;-78
2023/12/26 10:13:57;;;;;;;0.70;0.70;;;;;;;8.62;100.00;99353.39;5052729;56;1136400;-77
2023/12/26 10:19:03;;;;;;;0.80;0.80;;;;;;;8.66;100.00;99353.48;4948187;57;1136761;-79
2023/12/26 10:24:10;;;;;;;1.60;0.80;;;;;;;8.72;100.00;99358.67;5021415;56;1137024;-77
2023/12/26 10:29:17;;;;;;;0.83;0.67;;;;;;;8.76;100.00;99360.91;5044983;57;1136551;-76
2023/12/26 10:34:22;;;;;;;1.97;1.77;;;;;;;8.84;100.00;99372.11;5025335;57;1136626;-77
2023/12/26 10:39:28;;;;;;;2.20;0.60;;;;;;;8.95;100.00;99379.06;5021401;57;1136565;-77
2023/12/26 10:44:34;;;;;;;0.83;0.73;;;;;;;9.02;100.00;99404.73;5015020;57;1139044;-77
2023/12/26 10:49:42;;;;;;;3.30;0.77;;;;;;;9.03;100.00;99391.06;4961564;58;1136479;-79
2023/12/26 10:54:50;;;;;;;1.27;0.60;;;;;;;9.14;100.00;99403.66;4997836;56;1136667;-79
2023/12/26 10:59:55;;;;;;;2.03;0.73;;;;;;;9.31;100.00;99431.18;4996688;57;1136765;-78
2023/12/26 11:05:01;;;;;;;1.60;0.70;;;;;;;9.32;100.00;99424.09;5056389;57;1136729;-75
2023/12/26 11:10:07;;;;;;;0.75;0.75;;;;;;;9.24;100.00;99449.00;5039481;57;1136795;-79
2023/12/26 11:15:12;;;;;;;7.67;1.10;;;;;;;9.12;100.00;99447.80;5035573;57;1137040;-75
2023/12/26 11:20:18;;;;;;;0.53;0.53;;;;;;;9.05;100.00;99457.70;5053758;57;1136613;-75
2023/12/26 11:25:24;;;;;;;3.97;1.00;;;;;;;9.01;100.00;99466.36;5035659;57;1136563;-76
2023/12/26 11:30:31;;;;;;;1.53;1.23;;;;;;;8.98;100.00;99475.05;5039376;57;1136697;-78
2023/12/26 11:35:37;;;;;;;1.57;0.80;;;;;;;8.95;100.00;99485.38;4948128;58;1136605;-76
2023/12/26 11:40:43;;;;;;;5.47;1.87;;;;;;;8.85;100.00;99493.74;5056681;57;1136932;-77
2023/12/26 11:45:48;;;;;;;4.53;1.17;;;;;;;8.99;100.00;99504.41;5034239;57;1137374;-78
2023/12/26 11:50:55;;;;;;;2.43;1.23;;;;;;;9.04;100.00;99514.89;5027346;57;1136725;-78
2023/12/26 11:56:01;;;;;;;3.30;1.10;;;;;;;9.22;100.00;99505.85;5076016;56;1136843;-76
2023/12/26 12:01:06;;;;;;;3.40;0.98;;;;;;;9.54;100.00;99501.68;4937041;57;1136746;-76
2023/12/26 12:06:18;;;;;;;2.63;1.10;;;;;;;9.72;100.00;99484.19;4962925;57;1136762;-75
2023/12/26 12:11:23;;;;;;;2.63;0.90;;;;;;;9.80;100.00;99498.00;4982325;57;1136590;-76
2023/12/26 12:16:29;;;;;;;6.63;1.53;;;;;;;9.94;100.00;99509.47;4937563;57;1136631;-76
2023/12/26 12:21:39;;;;;;;2.25;0.78;;;;;;;9.89;100.00;99519.63;5058831;56;1136589;-77
2023/12/26 12:27:07;;;;;;;5.17;1.57;;;;;;;9.73;100.00;99517.55;5098473;56;1136856;-77
2023/12/26 12:32:19;;;;;;;3.27;1.20;;;;;;;9.61;100.00;99523.09;5064513;57;1136748;-76
2023/12/26 12:37:26;;;;;;;5.43;0.97;;;;;;;9.43;100.00;99523.75;5097503;56;1136747;-77
2023/12/26 12:42:39;;;;;;;1.30;0.70;;;;;;;9.32;100.00;99534.41;5099546;56;1136463;-78
2023/12/26 12:47:45;;;;;;;3.43;1.60;;;;;;;9.23;100.00;99548.90;5085869;56;1137009;-76
2023/12/26 12:52:51;;;;;;;2.63;0.90;;;;;;;9.15;100.00;99562.29;5065098;56;1136954;-76
2023/12/26 12:57:58;;;;;;;5.83;1.57;;;;;;;9.03;100.00;99573.87;5100207;56;1136939;-78
2023/12/26 13:03:04;;;;;;;2.00;0.90;;;;;;;8.88;100.00;99573.03;5019546;57;1136585;-76
2023/12/26 13:08:09;;;;;;;2.98;1.05;;;;;;;8.77;100.00;99586.66;4946148;58;1136752;-77
2023/12/26 13:13:15;;;;;;;2.83;1.37;;;;;;;8.74;100.00;99586.08;4926100;58;1136657;-77
2023/12/26 13:18:21;;;;;;;6.53;1.53;;;;;;;8.63;100.00;99602.81;5010552;57;1136756;-77
2023/12/26 13:23:26;;;;;;;2.27;0.93;;;;;;;8.54;100.00;99600.13;4945122;57;1136689;-77
2023/12/26 13:28:35;;;;;;;4.77;1.13;;;;;;;8.50;100.00;99599.54;5011557;57;1136609;-76
2023/12/26 13:33:40;;;;;;;3.87;1.40;;;;;;;8.52;100.00;99613.91;5009982;57;1136626;-77
2023/12/26 13:38:46;;;;;;;3.37;0.80;;;;;;;8.55;100.00;99618.45;5012433;57;1136987;-77
2023/12/26 13:43:51;;;;;;;6.80;1.50;;;;;;;8.57;100.00;99631.47;4957638;57;1136919;-76
2023/12/26 13:48:57;;;;;;;2.15;1.55;;;;;;;8.56;100.00;99633.27;4859161;58;1136641;-78
2023/12/26 13:54:03;;;;;;;7.35;1.00;;;;;;;8.45;100.00;99642.55;4857244;57;1137090;-77
2023/12/26 13:59:09;;;;;;;6.15;0.68;;;;;;;8.23;100.00;99646.59;4876879;58;1136612;-76
2023/12/26 14:04:14;;;;;;;0.77;0.70;;;;;;;8.09;100.00;99647.23;4910489;58;1136987;-77
2023/12/26 14:09:20;;;;;;;3.27;1.10;;;;;;;8.03;100.00;99650.34;4963652;57;1136918;-77
2023/12/26 14:14:25;;;;;;;2.63;1.20;;;;;;;8.02;100.00;99651.78;4977869;56;1136337;-77
2023/12/26 14:19:37;;;;;;;3.40;1.00;;;;;;;7.98;100.00;99676.20;5113964;56;1136641;-77
2023/12/26 14:24:39;;;;;;;7.27;1.47;;;;;;;7.92;100.00;99682.45;4932407;57;1136565;-76
2023/12/26 14:29:44;;;;;;;4.53;1.50;;;;;;;7.88;100.00;99702.08;5039092;57;1136848;-76
2023/12/26 14:34:50;;;;;;;4.27;1.37;;;;;;;7.84;100.00;99698.84;5064039;57;1136867;-76
2023/12/26 14:39:55;;;;;;;7.20;1.40;;;;;;;7.84;100.00;99693.58;5045060;57;1136969;-77
2023/12/26 14:45:01;;;;;;;7.00;1.60;;;;;;;7.88;100.00;99696.81;5044796;56;1136897;-77
2023/12/26 14:50:06;;;;;;;6.78;2.17;;;;;;;7.90;100.00;99720.75;5034058;56;1136597;-77
2023/12/26 14:55:12;;;;;;;7.40;2.13;;;;;;;7.91;100.00;99717.64;5025119;56;1136603;-76
2023/12/26 15:00:17;;;;;;;4.60;1.40;;;;;;;7.94;100.00;99720.88;5024197;56;1136787;-77
2023/12/26 15:05:23;;;;;;;9.23;2.00;;;;;;;7.98;100.00;99729.34;5039935;57;1137007;-77
2023/12/26 15:10:28;;;;;;;3.87;1.60;;;;;;;7.99;100.00;99727.07;4939777;57;1136675;-77
2023/12/26 15:15:34;;;;;;;4.40;1.20;;;;;;;8.04;100.00;99740.72;4973815;58;1136966;-77
2023/12/26 15:20:52;;;;;;;4.73;1.23;;;;;;;7.99;100.00;99730.55;5071681;57;1137149;-78
2023/12/26 15:25:59;;;;;;;4.33;1.32;;;;;;;8.03;100.00;99745.62;5061046;57;1137139;-78
2023/12/26 15:31:08;;;;;;;11.30;1.87;;;;;;;7.92;100.00;99728.53;4899103;58;1136747;-77
2023/12/26 15:36:22;;;;;;;4.27;1.27;;;;;;;7.98;100.00;99751.72;5013077;56;1138787;-77
2023/12/26 15:41:28;;;;;;;4.80;1.00;;;;;;;7.98;100.00;99754.36;5069228;57;1136496;-77
2023/12/26 15:46:33;;;;;;;5.27;1.00;;;;;;;7.97;100.00;99761.89;5048744;57;1136871;-77
2023/12/26 15:51:41;;;;;;;3.22;1.17;;;;;;;7.96;100.00;99765.01;5048106;57;1136719;-77
2023/12/26 15:56:48;;;;;;;3.23;1.07;;;;;;;7.96;100.00;99775.54;5093613;57;1136682;-76
2023/12/26 16:01:54;;;;;;;2.67;1.12;;;;;;;7.96;100.00;99789.18;5027635;57;1136818;-77
2023/12/26 16:06:59;;;;;;;6.33;2.00;;;;;;;7.94;100.00;99788.49;5022510;57;1136548;-77
2023/12/26 16:12:07;;;;;;;3.17;1.63;;;;;;;7.93;100.00;99781.55;5053947;56;1136799;-77
2023/12/26 16:17:12;;;;;;;2.57;0.83;;;;;;;7.89;100.00;99794.59;5027202;56;1136792;-77
2023/12/26 16:22:18;;;;;;;5.73;1.20;;;;;;;7.85;100.00;99799.72;5084057;57;1134538;-77
2023/12/26 16:27:24;;;;;;;6.45;1.02;;;;;;;7.83;100.00;99807.73;5027839;58;1136773;-77
2023/12/26 16:32:29;;;;;;;7.70;2.13;;;;;;;7.82;100.00;99803.91;4965422;57;1136689;-76
2023/12/26 16:37:35;;;;;;;6.10;2.00;;;;;;;7.84;100.00;99794.09;4949004;58;1136541;-76
2023/12/26 16:42:41;;;;;;;4.43;1.93;;;;;;;7.86;100.00;99795.66;5035144;57;1136801;-76
2023/12/26 16:47:46;;;;;;;6.37;1.53;;;;;;;7.87;100.00;99792.55;4929814;57;1136836;-76
2023/12/26 16:52:52;;;;;;;10.13;1.80;;;;;;;7.87;100.00;99805.23;5021434;57;1136739;-76
2023/12/26 16:57:57;;;;;;;5.33;1.27;;;;;;;7.90;100.00;99790.52;5108018;56;1138524;-77
2023/12/26 17:03:03;;;;;;;7.17;2.17;;;;;;;7.87;100.00;99811.81;5013365;57;1136714;-77
2023/12/26 17:08:10;;;;;;;4.47;1.10;;;;;;;7.88;100.00;99813.49;4969751;56;1136745;-76
2023/12/26 17:13:19;;;;;;;6.50;2.30;;;;;;;7.89;100.00;99813.02;4913923;58;1136645;-78
2023/12/26 17:18:24;;;;;;;2.55;1.52;;;;;;;7.75;100.00;99803.08;5012577;56;1136893;-77
2023/12/26 17:23:29;;;;;;;2.90;1.30;;;;;;;7.77;100.00;99818.76;4932296;58;1136880;-77
2023/12/26 17:28:35;;;;;;;7.80;2.07;;;;;;;7.74;100.00;99825.57;5079622;56;1136621;-76
2023/12/26 17:33:40;;;;;;;4.37;1.07;;;;;;;7.76;100.00;99828.92;4944126;58;1136981;-77
2023/12/26 17:38:46;;;;;;;6.00;0.90;;;;;;;7.69;100.00;99836.44;5057699;57;1136632;-77
2023/12/26 17:43:52;;;;;;;2.97;1.27;;;;;;;7.66;100.00;99837.14;4997879;57;1136574;-77
2023/12/26 17:48:57;;;;;;;4.90;1.50;;;;;;;7.68;100.00;99828.66;4963002;57;1136701;-77
2023/12/26 17:54:03;;;;;;;4.33;1.07;;;;;;;7.67;100.00;99836.19;4983106;57;1136522;-77
2023/12/26 17:59:09;;;;;;;10.07;2.10;;;;;;;7.65;100.00;99836.78;4963301;57;1136649;-77
2023/12/26 18:04:14;;;;;;;5.23;1.13;;;;;;;7.65;100.00;99857.36;4963522;56;1138738;-77
2023/12/26 18:09:20;;;;;;;2.43;0.90;;;;;;;7.62;100.00;99852.36;4986845;57;1138080;-77
2023/12/26 18:14:25;;;;;;;3.07;1.13;;;;;;;7.60;100.00;99854.73;5108093;56;1136689;-76
2023/12/26 18:19:31;;;;;;;5.75;1.65;;;;;;;7.58;100.00;99855.33;5149341;56;1134586;-77
2023/12/26 18:24:36;;;;;;;7.53;1.57;;;;;;;7.58;100.00;99863.22;5130326;56;1134876;-77
2023/12/26 18:29:42;;;;;;;2.20;0.90;;;;;;;7.59;100.00;99877.58;5129246;56;1134625;-76
2023/12/26 18:34:48;;;;;;;4.87;1.30;;;;;;;7.59;100.00;99885.48;5105809;56;1136692;-78
2023/12/26 18:39:53;;;;;;;2.92;0.90;;;;;;;7.59;100.00;99893.84;5129565;56;1134868;-77
2023/12/26 18:44:59;;;;;;;4.63;1.43;;;;;;;7.59;100.00;99901.74;5134463;56;1134342;-77
2023/12/26 18:50:05;;;;;;;7.45;1.10;;;;;;;7.58;100.00;99899.59;5114039;56;1134622;-77
2023/12/26 18:55:11;;;;;;;6.17;1.47;;;;;;;7.60;100.00;99908.69;5109389;56;1134609;-76
2023/12/26 19:00:17;;;;;;;3.40;1.20;;;;;;;7.62;100.00;99933.09;5124767;56;1136735;-76
2023/12/26 19:05:22;;;;;;;7.57;1.17;;;;;;;7.62;100.00;99933.09;5128919;56;1134582;-76
2023/12/26 19:10:28;;;;;;;2.37;0.93;;;;;;;7.65;100.00;99931.53;5102181;56;1136889;-77
2023/12/26 19:15:35;;;;;;;7.87;2.37;;;;;;;7.67;100.00;99951.99;5108020;56;1134496;-77
2023/12/26 19:20:41;;;;;;;7.87;1.23;;;;;;;7.67;100.00;99959.89;5036387;57;1136472;-78
2023/12/26 19:25:46;;;;;;;3.47;1.23;;;;;;;7.63;100.00;99979.52;4940141;58;1136842;-77
2023/12/26 19:30:52;;;;;;;1.20;0.63;;;;;;;7.50;100.00;99999.77;4958637;58;1136641;-77
2023/12/26 19:35:58;;;;;;;2.00;1.10;;;;;;;7.37;100.00;100008.55;4939000;58;1134584;-79
2023/12/26 19:41:04;;;;;;;1.20;0.50;;;;;;;7.21;100.00;100018.50;4938955;58;1136738;-77
2023/12/26 19:46:13;;;;;;;2.30;0.80;;;;;;;7.04;100.00;100021.48;4958861;58;1136476;-80
2023/12/26 19:51:18;;;;;;;2.75;0.62;;;;;;;6.90;100.00;100018.99;4935064;58;1136845;-81
2023/12/26 19:56:24;;;;;;;2.33;0.77;;;;;;;6.77;100.00;100032.16;4939394;58;1136975;-79
2023/12/26 20:01:29;;;;;;;3.33;1.00;;;;;;;6.68;100.00;100036.28;4963802;58;1136956;-80
2023/12/26 20:06:37;;;;;;;5.97;1.63;;;;;;;6.65;100.00;100042.21;4926330;57;1136526;-79
2023/12/26 20:11:45;;;;;;;4.72;1.10;;;;;;;6.66;100.00;100068.39;4944094;58;1136822;-76
2023/12/26 20:16:51;;;;;;;2.90;1.47;;;;;;;6.64;100.00;100078.16;4939463;58;1136912;-80
2023/12/26 20:21:57;;;;;;;5.93;2.87;;;;;;;6.61;100.00;100095.44;5066124;56;1137040;-80
2023/12/26 20:27:03;;;;;;;13.13;6.80;;;;;;;6.37;100.00;100076.56;5023924;57;1136549;-76
2023/12/26 20:32:09;;;;;;;3.97;2.73;;;;;;;6.08;100.00;100098.20;5044103;57;1138798;-78
2023/12/26 20:37:15;;;;;;;5.90;2.97;;;;;;;5.93;100.00;100107.45;5023952;57;1136894;-78
2023/12/26 20:42:21;;;;;;;1.00;0.87;;;;;;;5.89;100.00;100111.67;5023146;57;1136709;-79
2023/12/26 20:47:26;;;;;;;4.13;1.40;;;;;;;5.86;100.00;100110.52;5058257;56;1238055;-80
2023/12/26 20:52:32;;;;;;;3.70;1.80;;;;;;;5.83;100.00;100107.62;5109297;56;1139658;-77
2023/12/26 20:57:37;;;;;;;2.22;0.75;;;;;;;5.87;100.00;100097.77;5024659;57;1136702;-79
2023/12/26 21:02:43;;;;;;;5.05;1.02;;;;;;;5.91;100.00;100125.07;4923161;58;1136563;-77
2023/12/26 21:07:49;;;;;;;2.20;0.80;;;;;;;5.94;100.00;100140.62;4929129;57;1136757;-76
2023/12/26 21:12:54;;;;;;;1.83;0.40;;;;;;;5.97;100.00;100147.44;4943759;58;1136843;-77
2023/12/26 21:18:00;;;;;;;1.17;0.53;;;;;;;5.94;100.00;100159.47;4942315;57;1136595;-78
2023/12/26 21:23:07;;;;;;;1.90;0.37;;;;;;;5.91;100.00;100173.63;4888638;59;1136518;-78
2023/12/26 21:28:13;;;;;;;0.40;0.40;;;;;;;5.91;100.00;100202.97;4866022;59;1136746;-79
2023/12/26 21:33:19;;;;;;;1.37;0.70;;;;;;;5.87;100.00;100210.63;4861725;58;1136648;-79
2023/12/26 21:38:24;;;;;;;0.30;0.30;;;;;;;5.83;100.00;100226.17;4891016;58;1136791;-77
2023/12/26 21:43:30;;;;;;;0.70;0.40;;;;;;;5.80;100.00;100219.36;4959586;57;1136614;-75
2023/12/26 21:48:36;;;;;;;2.60;0.70;;;;;;;5.78;100.00;100230.42;4928724;57;1136575;-76
2023/12/26 21:53:43;;;;;;;3.20;0.50;;;;;;;5.76;100.00;100235.39;4908422;58;1136688;-78
2023/12/26 21:58:49;;;;;;;1.15;0.50;;;;;;;5.72;100.00;100235.20;5014570;58;1136936;-78
2023/12/26 22:03:54;;;;;;;0.70;0.47;;;;;;;5.68;100.00;100233.69;4933099;58;1136712;-78
2023/12/26 22:09:00;;;;;;;1.23;0.50;;;;;;;5.66;100.00;100260.02;4944025;58;1136472;-79
2023/12/26 22:14:05;;;;;;;0.47;0.43;;;;;;;5.66;100.00;100266.11;4953447;58;1137010;-78
2023/12/26 22:19:11;;;;;;;2.67;0.70;;;;;;;5.62;100.00;100272.97;4964045;57;1228015;-76
2023/12/26 22:24:16;;;;;;;0.30;0.30;;;;;;;5.59;100.00;100275.31;4957011;58;1192072;-76
2023/12/26 22:29:22;;;;;;;2.27;1.00;;;;;;;5.56;100.00;100263.69;4919751;58;1229282;-78
2023/12/26 22:34:27;;;;;;;3.10;0.47;;;;;;;5.52;100.00;100276.61;5021776;57;1210945;-78
2023/12/26 22:39:34;;;;;;;2.67;0.83;;;;;;;5.45;100.00;100298.06;4979321;57;1223102;-78
2023/12/26 22:44:39;;;;;;;1.13;0.73;;;;;;;5.40;100.00;100306.20;4980752;57;1215981;-78
2023/12/26 22:49:45;;;;;;;6.30;1.62;;;;;;;5.38;100.00;100325.11;4949492;58;1136687;-78
2023/12/26 22:54:50;;;;;;;0.70;0.60;;;;;;;5.36;100.00;100330.91;5014543;56;1253956;-78
2023/12/26 22:59:57;;;;;;;2.73;0.83;;;;;;;5.36;100.00;100329.59;4929715;57;1233864;-78
2023/12/26 23:05:02;;;;;;;3.43;0.80;;;;;;;5.35;100.00;100339.70;4955879;57;1244661;-78
2023/12/26 23:10:09;;;;;;;1.83;0.43;;;;;;;5.35;100.00;100331.03;4915691;57;1245844;-78
2023/12/26 23:15:15;;;;;;;0.77;0.40;;;;;;;5.36;100.00;100333.53;4970356;57;1248862;-78
2023/12/26 23:20:20;;;;;;;0.80;0.43;;;;;;;5.37;100.00;100340.47;4974880;57;1175324;-78